Terminal Aerodrome Forecast
Issued by NWS Charleston, WV

Home | Current Version | Previous Version | Text Only | Print | Product List | Glossary On
Versions: 1 2 3 4 5 6 7 8 9 10 11 12 13 14 15 16 17 18 19 20 21 22 23 24 25 26
000
FTUS41 KRLX 281512 AAA
TAFEKN
TAF AMD
KEKN 281512Z 2815/2912 VRB03KT P6SM SCT030
     FM281700 VRB03KT P6SM VCTS SCT040CB
     FM281900 VRB03KT P6SM VCTS BKN040CB
     FM290200 00000KT P6SM BKN040
     FM290700 00000KT 6SM BR BKN040=

USA.gov is the U.S. government's official web portal to all federal, state and local government web resources and services.